createdAt,value
2022-12-17T00:00:27.619Z,-3.40
2022-12-17T00:05:48.288Z,-3.50
2022-12-17T00:11:08.692Z,-3.60
2022-12-17T00:16:29.657Z,-3.60
2022-12-17T00:22:00.751Z,-3.50
2022-12-17T00:27:21.239Z,-3.60
2022-12-17T00:32:41.787Z,-3.70
2022-12-17T00:38:04.877Z,-3.80
2022-12-17T00:43:30.332Z,-3.80
2022-12-17T00:48:50.933Z,-3.80
2022-12-17T00:54:12.310Z,-3.80
2022-12-17T00:59:32.780Z,-3.90
2022-12-17T01:04:53.231Z,-3.90
2022-12-17T01:10:14.231Z,-3.90
2022-12-17T01:15:34.558Z,-4.10
2022-12-17T01:20:55.004Z,-3.90
2022-12-17T01:26:18.026Z,-3.80
2022-12-17T01:31:38.351Z,-3.80
2022-12-17T01:36:58.942Z,-4.00
2022-12-17T01:42:19.234Z,-4.00
2022-12-17T01:47:39.407Z,-3.90
2022-12-17T01:52:59.922Z,-3.90
2022-12-17T01:58:20.452Z,-4.00
2022-12-17T02:03:40.811Z,-4.00
2022-12-17T02:09:10.847Z,-3.90
2022-12-17T02:15:00.345Z,-4.20
2022-12-17T02:20:58.151Z,-4.10
2022-12-17T02:26:39.930Z,-4.30
2022-12-17T02:32:04.645Z,-4.50
2022-12-17T02:37:25.010Z,-4.50
2022-12-17T02:42:45.889Z,-4.50
2022-12-17T02:48:06.418Z,-4.40
2022-12-17T02:53:26.953Z,-4.50
2022-12-17T02:58:47.445Z,-4.60
2022-12-17T03:04:07.796Z,-4.80
2022-12-17T03:09:28.292Z,-4.70
2022-12-17T03:14:48.782Z,-4.70
2022-12-17T03:20:09.346Z,-4.70
2022-12-17T03:25:29.770Z,-4.60
2022-12-17T03:30:50.423Z,-4.70
2022-12-17T03:36:14.971Z,-4.70
2022-12-17T03:41:35.420Z,-4.80
2022-12-17T03:46:55.885Z,-4.90
2022-12-17T03:52:16.395Z,-4.70
2022-12-17T03:57:36.749Z,-4.70
2022-12-17T04:02:57.428Z,-4.60
2022-12-17T04:08:17.806Z,-4.70
2022-12-17T04:13:41.097Z,-4.70
2022-12-17T04:19:01.718Z,-4.80
2022-12-17T04:24:21.896Z,-4.90
2022-12-17T04:29:42.224Z,-4.90
2022-12-17T04:35:02.730Z,-4.90
2022-12-17T04:40:23.755Z,-4.90
2022-12-17T04:45:44.419Z,-4.90
2022-12-17T04:51:04.831Z,-4.80
2022-12-17T04:56:25.225Z,-4.80
2022-12-17T05:01:45.780Z,-4.80
2022-12-17T05:07:06.084Z,-4.80
2022-12-17T05:12:26.115Z,-4.80
2022-12-17T05:17:46.670Z,-4.60
2022-12-17T05:23:07.380Z,-4.60
2022-12-17T05:28:27.882Z,-4.60
2022-12-17T05:33:48.346Z,-4.50
2022-12-17T05:39:08.857Z,-4.80
2022-12-17T05:44:29.218Z,-4.90
2022-12-17T05:49:50.085Z,-5.00
2022-12-17T05:55:10.653Z,-5.00
2022-12-17T06:00:31.643Z,-5.20
2022-12-17T06:05:51.808Z,-5.40
2022-12-17T06:11:12.335Z,-4.80
2022-12-17T06:16:32.776Z,-4.90
2022-12-17T06:21:53.125Z,-4.80
2022-12-17T06:27:13.616Z,-4.90
2022-12-17T06:32:34.200Z,-4.90
2022-12-17T06:37:54.640Z,-5.20
2022-12-17T06:43:16.152Z,-5.20
2022-12-17T06:48:53.339Z,-5.30
2022-12-17T06:54:13.894Z,-5.30
2022-12-17T06:59:34.436Z,-5.40
2022-12-17T07:04:55.074Z,-5.20
2022-12-17T07:10:16.467Z,-5.50
2022-12-17T07:15:36.870Z,-5.20
2022-12-17T07:20:57.363Z,-5.00
2022-12-17T07:26:17.805Z,-4.70
2022-12-17T07:31:38.415Z,-5.00
2022-12-17T07:36:58.722Z,-5.20
2022-12-17T07:42:19.339Z,-5.20
2022-12-17T07:47:39.792Z,-5.10
2022-12-17T07:53:00.148Z,-5.10
2022-12-17T07:58:23.178Z,-5.10
2022-12-17T08:03:43.721Z,-5.20
2022-12-17T08:09:04.131Z,-5.10
2022-12-17T08:14:24.681Z,-5.00
2022-12-17T08:19:45.104Z,-5.00
2022-12-17T08:25:05.453Z,-4.70
2022-12-17T08:30:26.703Z,-4.60
2022-12-17T08:35:47.376Z,-4.60
2022-12-17T08:41:07.772Z,-4.40
2022-12-17T08:46:28.244Z,-4.30
2022-12-17T08:51:48.338Z,-4.30
2022-12-17T08:57:08.881Z,-4.10
2022-12-17T09:02:34.066Z,-4.10
2022-12-17T09:07:54.609Z,-4.00
2022-12-17T09:13:15.106Z,-4.10
2022-12-17T09:18:39.752Z,-3.80
2022-12-17T09:24:00.186Z,-3.90
2022-12-17T09:29:20.704Z,-3.80
2022-12-17T09:34:41.042Z,-3.80
2022-12-17T09:40:01.202Z,-3.60
2022-12-17T09:45:38.777Z,-3.40
2022-12-17T09:50:59.212Z,-3.30
2022-12-17T09:56:19.688Z,-3.30
2022-12-17T10:01:53.122Z,-3.20
2022-12-17T10:07:14.857Z,-3.10
2022-12-17T10:12:38.353Z,-3.10
2022-12-17T10:17:58.833Z,-2.90
2022-12-17T10:23:19.244Z,-2.90
2022-12-17T10:28:41.523Z,-2.80
2022-12-17T10:34:02.046Z,-3.00
2022-12-17T10:39:22.642Z,-3.00
2022-12-17T10:44:52.774Z,-2.80
2022-12-17T10:50:17.715Z,-2.80
2022-12-17T10:56:06.412Z,-2.90
2022-12-17T11:01:31.752Z,-2.70
2022-12-17T11:07:09.478Z,-2.60
2022-12-17T11:18:11.412Z,-2.50
2022-12-17T11:23:38.575Z,-2.40
2022-12-17T11:28:59.791Z,-2.40
2022-12-17T11:34:33.845Z,-2.30
2022-12-17T11:39:54.198Z,-2.20
2022-12-17T11:45:23.914Z,-2.10
2022-12-17T11:50:52.646Z,-2.10
2022-12-17T11:56:44.345Z,-2.10
2022-12-17T12:02:35.655Z,-1.90
2022-12-17T12:08:24.198Z,-2.10
2022-12-17T12:13:56.575Z,-2.10
2022-12-17T12:19:41.605Z,-2.20
2022-12-17T12:25:23.601Z,-2.10
2022-12-17T12:30:53.220Z,-2.10
2022-12-17T12:36:18.036Z,-1.90
2022-12-17T12:41:50.192Z,-2.10
2022-12-17T12:47:17.334Z,-1.90
2022-12-17T12:52:42.954Z,-2.00
2022-12-17T12:58:25.059Z,-1.90
2022-12-17T13:04:03.344Z,-2.00
2022-12-17T13:09:32.317Z,-1.90
2022-12-17T13:14:54.718Z,-2.00
2022-12-17T13:20:20.430Z,-1.90
2022-12-17T13:25:23.575Z,-1.80
2022-12-17T13:30:36.473Z,-1.80
2022-12-17T13:35:53.626Z,-1.80
2022-12-17T13:41:14.935Z,-1.80
2022-12-17T13:46:24.361Z,-1.70
2022-12-17T13:51:30.745Z,-1.90
2022-12-17T13:56:41.628Z,-1.90
2022-12-17T14:01:53.004Z,-1.90
2022-12-17T14:06:57.960Z,-1.90
2022-12-17T14:12:22.051Z,-2.00
2022-12-17T14:17:29.385Z,-2.00
2022-12-17T14:22:52.380Z,-2.00
2022-12-17T14:27:58.828Z,-2.00
2022-12-17T14:33:00.635Z,-2.00
2022-12-17T14:38:02.852Z,-2.00
2022-12-17T14:43:04.752Z,-1.90
2022-12-17T14:48:16.174Z,-1.90
2022-12-17T14:53:26.637Z,-1.80
2022-12-17T14:58:28.275Z,-1.90
2022-12-17T15:03:33.357Z,-1.90
2022-12-17T15:08:39.884Z,-1.90
2022-12-17T15:13:42.434Z,-1.90
2022-12-17T15:18:44.217Z,-2.00
2022-12-17T15:23:47.529Z,-2.00
2022-12-17T15:28:49.256Z,-2.10
2022-12-17T15:33:51.001Z,-2.10
2022-12-17T15:38:52.762Z,-2.20
2022-12-17T15:43:54.580Z,-2.20
2022-12-17T15:48:57.089Z,-2.20
2022-12-17T15:53:58.810Z,-2.20
2022-12-17T15:59:00.696Z,-2.20
2022-12-17T16:04:04.394Z,-2.20
2022-12-17T16:09:06.143Z,-2.20
2022-12-17T16:14:08.006Z,-2.20
2022-12-17T16:19:10.555Z,-2.20
2022-12-17T16:24:12.371Z,-2.30
2022-12-17T16:29:14.434Z,-2.30
2022-12-17T16:34:16.393Z,-2.30
2022-12-17T16:39:19.254Z,-2.40
2022-12-17T16:44:21.081Z,-2.40
2022-12-17T16:49:23.954Z,-2.40
2022-12-17T16:54:29.134Z,-2.60
2022-12-17T16:59:31.009Z,-2.50
2022-12-17T17:04:32.882Z,-2.50
2022-12-17T17:09:34.702Z,-2.60
2022-12-17T17:14:36.484Z,-2.60
2022-12-17T17:19:38.263Z,-2.60
2022-12-17T17:24:40.064Z,-2.70
2022-12-17T17:29:42.035Z,-2.70
2022-12-17T17:34:43.874Z,-2.70
2022-12-17T17:39:46.206Z,-2.70
2022-12-17T17:44:49.045Z,-2.80
2022-12-17T17:49:50.809Z,-2.90
2022-12-17T17:54:52.798Z,-2.90
2022-12-17T17:59:54.520Z,-2.90
2022-12-17T18:05:02.372Z,-3.00
2022-12-17T18:10:06.806Z,-2.90
2022-12-17T18:15:18.041Z,-3.00
2022-12-17T18:20:20.265Z,-3.00
2022-12-17T18:25:22.011Z,-3.10
2022-12-17T18:30:23.788Z,-3.10
2022-12-17T18:35:25.577Z,-3.10
2022-12-17T18:40:32.948Z,-3.40
2022-12-17T18:45:38.311Z,-3.40
2022-12-17T18:50:40.336Z,-3.40
2022-12-17T18:55:42.163Z,-3.40
2022-12-17T19:00:44.297Z,-3.50
2022-12-17T19:05:50.107Z,-3.40
2022-12-17T19:10:54.406Z,-3.40
2022-12-17T19:15:56.230Z,-3.50
2022-12-17T19:20:58.642Z,-3.50
2022-12-17T19:26:12.486Z,-3.50
2022-12-17T19:31:15.245Z,-3.50
2022-12-17T19:36:22.567Z,-3.60
2022-12-17T19:41:28.254Z,-3.60
2022-12-17T19:46:31.730Z,-3.60
2022-12-17T19:51:33.926Z,-3.60
2022-12-17T19:56:35.748Z,-3.70
2022-12-17T20:01:46.525Z,-3.80
2022-12-17T20:06:48.698Z,-3.80
2022-12-17T20:11:50.488Z,-3.80
2022-12-17T20:16:57.748Z,-3.90
2022-12-17T20:22:02.228Z,-3.90
2022-12-17T20:27:04.125Z,-3.90
2022-12-17T20:32:06.598Z,-4.00
2022-12-17T20:37:08.435Z,-4.00
2022-12-17T20:42:10.490Z,-4.00
2022-12-17T20:47:12.299Z,-4.10
2022-12-17T20:52:14.161Z,-4.00
2022-12-17T20:57:15.977Z,-4.00
2022-12-17T21:02:17.950Z,-4.10
2022-12-17T21:07:19.836Z,-4.00
2022-12-17T21:12:21.708Z,-4.00
2022-12-17T21:17:23.531Z,-3.90
2022-12-17T21:22:25.421Z,-4.00
2022-12-17T21:27:27.169Z,-4.10
2022-12-17T21:32:33.644Z,-4.00
2022-12-17T21:37:36.064Z,-4.00
2022-12-17T21:42:56.229Z,-4.10
2022-12-17T21:47:59.014Z,-4.00
2022-12-17T21:53:00.794Z,-4.10
2022-12-17T21:58:03.856Z,-4.10
2022-12-17T22:03:05.784Z,-4.10
2022-12-17T22:08:07.709Z,-4.20
2022-12-17T22:13:29.670Z,-4.20
2022-12-17T22:18:31.501Z,-4.10
2022-12-17T22:23:33.288Z,-4.20
2022-12-17T22:28:37.255Z,-4.20
2022-12-17T22:33:40.355Z,-4.20
2022-12-17T22:41:45.046Z,-4.10
2022-12-17T22:44:51.633Z,-4.20
2022-12-17T22:49:52.718Z,-4.30
2022-12-17T22:54:55.175Z,-4.30
2022-12-17T22:59:57.169Z,-4.30
2022-12-17T23:04:59.241Z,-4.30
2022-12-17T23:10:01.101Z,-4.40
2022-12-17T23:15:02.923Z,-4.40
2022-12-17T23:20:05.098Z,-4.50
2022-12-17T23:25:07.417Z,-4.60
2022-12-17T23:30:09.765Z,-4.70
2022-12-17T23:35:12.358Z,-4.80
2022-12-17T23:40:14.407Z,-4.90
2022-12-17T23:45:16.226Z,-4.90
2022-12-17T23:50:18.069Z,-4.80
2022-12-17T23:55:19.846Z,-4.70
